sensor_id;sensor_type;location;lat;lon;timestamp;P1;durP1;ratioP1;P2;durP2;ratioP2
55483;SDS011;41345;51.704;5.146;2022-08-11T00:00:04;5.70;;;3.10;;
55483;SDS011;41345;51.704;5.146;2022-08-11T00:05:07;6.45;;;2.90;;
55483;SDS011;41345;51.704;5.146;2022-08-11T00:10:09;4.80;;;2.60;;
55483;SDS011;41345;51.704;5.146;2022-08-11T00:15:10;11.48;;;3.00;;
55483;SDS011;41345;51.704;5.146;2022-08-11T00:20:11;7.25;;;3.20;;
55483;SDS011;41345;51.704;5.146;2022-08-11T00:25:13;8.45;;;3.55;;
55483;SDS011;41345;51.704;5.146;2022-08-11T00:30:14;6.65;;;3.30;;
55483;SDS011;41345;51.704;5.146;2022-08-11T00:35:15;7.28;;;3.38;;
55483;SDS011;41345;51.704;5.146;2022-08-11T00:40:24;7.95;;;3.47;;
55483;SDS011;41345;51.704;5.146;2022-08-11T00:45:45;9.95;;;3.72;;
55483;SDS011;41345;51.704;5.146;2022-08-11T00:51:10;5.93;;;3.25;;
55483;SDS011;41345;51.704;5.146;2022-08-11T00:56:17;6.18;;;3.20;;
55483;SDS011;41345;51.704;5.146;2022-08-11T01:22:22;7.97;;;3.97;;
55483;SDS011;41345;51.704;5.146;2022-08-11T01:59:27;11.23;;;5.05;;
55483;SDS011;41345;51.704;5.146;2022-08-11T02:09:43;12.88;;;4.95;;
55483;SDS011;41345;51.704;5.146;2022-08-11T02:14:47;12.35;;;5.65;;
55483;SDS011;41345;51.704;5.146;2022-08-11T02:19:54;7.70;;;4.93;;
55483;SDS011;41345;51.704;5.146;2022-08-11T02:30:24;8.05;;;4.60;;
55483;SDS011;41345;51.704;5.146;2022-08-11T03:01:52;9.63;;;4.80;;
55483;SDS011;41345;51.704;5.146;2022-08-11T03:06:58;8.43;;;5.35;;
55483;SDS011;41345;51.704;5.146;2022-08-11T03:17:29;11.05;;;5.43;;
55483;SDS011;41345;51.704;5.146;2022-08-11T03:22:33;9.77;;;4.80;;
55483;SDS011;41345;51.704;5.146;2022-08-11T03:59:12;14.07;;;5.97;;
55483;SDS011;41345;51.704;5.146;2022-08-11T04:15:01;13.25;;;6.95;;
55483;SDS011;41345;51.704;5.146;2022-08-11T04:52:31;9.87;;;6.47;;
55483;SDS011;41345;51.704;5.146;2022-08-11T04:57:58;8.57;;;5.18;;
55483;SDS011;41345;51.704;5.146;2022-08-11T05:03:39;11.45;;;6.07;;
55483;SDS011;41345;51.704;5.146;2022-08-11T05:14:11;9.02;;;5.10;;
55483;SDS011;41345;51.704;5.146;2022-08-11T05:19:35;8.63;;;5.40;;
55483;SDS011;41345;51.704;5.146;2022-08-11T05:25:05;9.43;;;5.00;;
55483;SDS011;41345;51.704;5.146;2022-08-11T05:30:27;9.32;;;5.28;;
55483;SDS011;41345;51.704;5.146;2022-08-11T05:35:47;11.70;;;6.13;;
55483;SDS011;41345;51.704;5.146;2022-08-11T05:40:49;10.68;;;6.38;;
55483;SDS011;41345;51.704;5.146;2022-08-11T05:46:09;11.23;;;5.43;;
55483;SDS011;41345;51.704;5.146;2022-08-11T05:51:35;15.35;;;6.07;;
55483;SDS011;41345;51.704;5.146;2022-08-11T05:56:56;8.93;;;4.95;;
55483;SDS011;41345;51.704;5.146;2022-08-11T06:02:01;13.15;;;6.35;;
55483;SDS011;41345;51.704;5.146;2022-08-11T06:07:05;11.45;;;6.00;;
55483;SDS011;41345;51.704;5.146;2022-08-11T06:12:15;10.48;;;5.43;;
55483;SDS011;41345;51.704;5.146;2022-08-11T06:17:26;8.48;;;4.80;;
55483;SDS011;41345;51.704;5.146;2022-08-11T06:22:26;12.68;;;5.60;;
55483;SDS011;41345;51.704;5.146;2022-08-11T06:27:30;11.77;;;5.78;;
55483;SDS011;41345;51.704;5.146;2022-08-11T06:32:33;10.18;;;5.18;;
55483;SDS011;41345;51.704;5.146;2022-08-11T06:47:54;8.63;;;5.03;;
55483;SDS011;41345;51.704;5.146;2022-08-11T06:52:55;9.07;;;5.22;;
55483;SDS011;41345;51.704;5.146;2022-08-11T06:57:56;9.30;;;5.75;;
55483;SDS011;41345;51.704;5.146;2022-08-11T07:03:16;12.63;;;5.68;;
55483;SDS011;41345;51.704;5.146;2022-08-11T07:08:43;10.48;;;5.68;;
55483;SDS011;41345;51.704;5.146;2022-08-11T07:14:10;10.05;;;4.90;;
55483;SDS011;41345;51.704;5.146;2022-08-11T07:19:29;9.68;;;4.05;;
55483;SDS011;41345;51.704;5.146;2022-08-11T07:24:53;14.50;;;5.60;;
55483;SDS011;41345;51.704;5.146;2022-08-11T07:30:13;9.60;;;4.55;;
55483;SDS011;41345;51.704;5.146;2022-08-11T07:35:16;13.45;;;6.13;;
55483;SDS011;41345;51.704;5.146;2022-08-11T07:40:20;9.60;;;5.45;;
55483;SDS011;41345;51.704;5.146;2022-08-11T07:45:22;10.00;;;5.28;;
55483;SDS011;41345;51.704;5.146;2022-08-11T07:50:42;8.52;;;5.18;;
55483;SDS011;41345;51.704;5.146;2022-08-11T07:56:01;10.60;;;5.22;;
55483;SDS011;41345;51.704;5.146;2022-08-11T08:01:02;11.30;;;4.70;;
55483;SDS011;41345;51.704;5.146;2022-08-11T08:06:21;8.25;;;4.63;;
55483;SDS011;41345;51.704;5.146;2022-08-11T08:11:40;14.70;;;5.15;;
55483;SDS011;41345;51.704;5.146;2022-08-11T08:17:00;10.13;;;4.72;;
55483;SDS011;41345;51.704;5.146;2022-08-11T08:22:19;9.70;;;5.07;;
55483;SDS011;41345;51.704;5.146;2022-08-11T08:27:19;10.45;;;5.30;;
55483;SDS011;41345;51.704;5.146;2022-08-11T08:32:20;10.60;;;4.07;;
55483;SDS011;41345;51.704;5.146;2022-08-11T08:37:21;7.90;;;3.78;;
55483;SDS011;41345;51.704;5.146;2022-08-11T08:42:32;9.68;;;4.38;;
55483;SDS011;41345;51.704;5.146;2022-08-11T08:47:35;9.57;;;3.47;;
55483;SDS011;41345;51.704;5.146;2022-08-11T08:52:37;7.32;;;3.22;;
55483;SDS011;41345;51.704;5.146;2022-08-11T08:57:41;8.40;;;2.92;;
55483;SDS011;41345;51.704;5.146;2022-08-11T09:02:43;8.07;;;2.95;;
55483;SDS011;41345;51.704;5.146;2022-08-11T09:07:44;6.78;;;3.05;;
55483;SDS011;41345;51.704;5.146;2022-08-11T09:12:46;10.70;;;3.67;;
55483;SDS011;41345;51.704;5.146;2022-08-11T09:17:48;6.18;;;3.03;;
55483;SDS011;41345;51.704;5.146;2022-08-11T09:22:50;7.25;;;3.30;;
55483;SDS011;41345;51.704;5.146;2022-08-11T09:28:10;8.48;;;2.88;;
55483;SDS011;41345;51.704;5.146;2022-08-11T09:33:11;9.52;;;2.60;;
55483;SDS011;41345;51.704;5.146;2022-08-11T09:38:13;5.10;;;3.03;;
55483;SDS011;41345;51.704;5.146;2022-08-11T09:43:32;7.82;;;2.85;;
55483;SDS011;41345;51.704;5.146;2022-08-11T09:48:55;13.15;;;2.80;;
55483;SDS011;41345;51.704;5.146;2022-08-11T09:54:01;7.30;;;3.38;;
55483;SDS011;41345;51.704;5.146;2022-08-11T09:59:05;6.75;;;2.78;;
55483;SDS011;41345;51.704;5.146;2022-08-11T10:04:16;8.18;;;2.88;;
55483;SDS011;41345;51.704;5.146;2022-08-11T10:09:18;7.85;;;2.90;;
55483;SDS011;41345;51.704;5.146;2022-08-11T10:14:19;5.43;;;2.60;;
55483;SDS011;41345;51.704;5.146;2022-08-11T10:19:38;7.28;;;2.70;;
55483;SDS011;41345;51.704;5.146;2022-08-11T10:29:59;7.00;;;2.60;;
55483;SDS011;41345;51.704;5.146;2022-08-11T10:35:19;7.05;;;3.00;;
55483;SDS011;41345;51.704;5.146;2022-08-11T10:40:21;9.35;;;2.60;;
55483;SDS011;41345;51.704;5.146;2022-08-11T10:45:22;6.20;;;2.38;;
55483;SDS011;41345;51.704;5.146;2022-08-11T10:50:44;8.60;;;2.70;;
55483;SDS011;41345;51.704;5.146;2022-08-11T10:56:03;6.45;;;2.67;;
55483;SDS011;41345;51.704;5.146;2022-08-11T11:01:23;5.85;;;2.58;;
55483;SDS011;41345;51.704;5.146;2022-08-11T11:06:29;8.98;;;2.60;;
55483;SDS011;41345;51.704;5.146;2022-08-11T11:11:34;5.80;;;2.38;;
55483;SDS011;41345;51.704;5.146;2022-08-11T11:16:55;5.68;;;2.55;;
55483;SDS011;41345;51.704;5.146;2022-08-11T11:22:14;7.57;;;2.80;;
55483;SDS011;41345;51.704;5.146;2022-08-11T11:37:38;8.02;;;2.67;;
55483;SDS011;41345;51.704;5.146;2022-08-11T11:42:40;8.43;;;2.40;;
55483;SDS011;41345;51.704;5.146;2022-08-11T11:47:41;6.50;;;2.42;;
55483;SDS011;41345;51.704;5.146;2022-08-11T11:52:43;5.35;;;2.28;;
55483;SDS011;41345;51.704;5.146;2022-08-11T11:57:44;6.95;;;2.38;;
55483;SDS011;41345;51.704;5.146;2022-08-11T12:03:05;5.45;;;2.13;;
55483;SDS011;41345;51.704;5.146;2022-08-11T12:08:06;8.10;;;2.80;;
55483;SDS011;41345;51.704;5.146;2022-08-11T12:13:16;4.90;;;2.22;;
55483;SDS011;41345;51.704;5.146;2022-08-11T12:18:35;6.15;;;2.58;;
55483;SDS011;41345;51.704;5.146;2022-08-11T12:23:36;7.10;;;2.40;;
55483;SDS011;41345;51.704;5.146;2022-08-11T12:28:56;6.93;;;2.22;;
55483;SDS011;41345;51.704;5.146;2022-08-11T12:34:01;6.35;;;2.80;;
55483;SDS011;41345;51.704;5.146;2022-08-11T12:39:02;5.87;;;2.40;;
55483;SDS011;41345;51.704;5.146;2022-08-11T12:44:04;7.35;;;2.33;;
55483;SDS011;41345;51.704;5.146;2022-08-11T12:49:26;4.18;;;1.90;;
55483;SDS011;41345;51.704;5.146;2022-08-11T12:59:53;5.95;;;2.00;;
55483;SDS011;41345;51.704;5.146;2022-08-11T13:05:13;6.07;;;2.10;;
55483;SDS011;41345;51.704;5.146;2022-08-11T13:10:15;6.40;;;2.10;;
55483;SDS011;41345;51.704;5.146;2022-08-11T13:15:36;7.07;;;2.13;;
55483;SDS011;41345;51.704;5.146;2022-08-11T13:20:36;5.88;;;2.20;;
55483;SDS011;41345;51.704;5.146;2022-08-11T13:25:37;7.17;;;2.20;;
55483;SDS011;41345;51.704;5.146;2022-08-11T13:30:38;5.57;;;2.30;;
55483;SDS011;41345;51.704;5.146;2022-08-11T13:35:57;4.35;;;2.00;;
55483;SDS011;41345;51.704;5.146;2022-08-11T13:40:57;5.17;;;2.20;;
55483;SDS011;41345;51.704;5.146;2022-08-11T13:45:58;6.33;;;2.30;;
55483;SDS011;41345;51.704;5.146;2022-08-11T13:51:17;4.05;;;2.05;;
55483;SDS011;41345;51.704;5.146;2022-08-11T13:56:30;4.65;;;2.15;;
55483;SDS011;41345;51.704;5.146;2022-08-11T14:01:32;20.27;;;3.05;;
55483;SDS011;41345;51.704;5.146;2022-08-11T14:06:33;7.25;;;2.15;;
55483;SDS011;41345;51.704;5.146;2022-08-11T14:11:34;4.20;;;2.17;;
55483;SDS011;41345;51.704;5.146;2022-08-11T14:17:05;5.03;;;1.90;;
55483;SDS011;41345;51.704;5.146;2022-08-11T14:22:07;5.03;;;2.30;;
55483;SDS011;41345;51.704;5.146;2022-08-11T14:27:10;5.45;;;2.28;;
55483;SDS011;41345;51.704;5.146;2022-08-11T14:32:11;4.03;;;1.90;;
55483;SDS011;41345;51.704;5.146;2022-08-11T14:37:13;5.75;;;2.15;;
55483;SDS011;41345;51.704;5.146;2022-08-11T14:42:15;9.23;;;2.37;;
55483;SDS011;41345;51.704;5.146;2022-08-11T14:47:38;7.03;;;2.47;;
55483;SDS011;41345;51.704;5.146;2022-08-11T14:52:42;8.43;;;2.13;;
55483;SDS011;41345;51.704;5.146;2022-08-11T14:57:43;6.05;;;2.20;;
55483;SDS011;41345;51.704;5.146;2022-08-11T15:02:44;4.68;;;2.17;;
55483;SDS011;41345;51.704;5.146;2022-08-11T15:08:03;5.07;;;2.28;;
55483;SDS011;41345;51.704;5.146;2022-08-11T15:13:05;8.98;;;2.35;;
55483;SDS011;41345;51.704;5.146;2022-08-11T15:18:05;4.47;;;2.20;;
55483;SDS011;41345;51.704;5.146;2022-08-11T15:23:06;6.03;;;2.20;;
55483;SDS011;41345;51.704;5.146;2022-08-11T15:28:26;3.17;;;2.03;;
55483;SDS011;41345;51.704;5.146;2022-08-11T15:33:45;4.53;;;1.77;;
55483;SDS011;41345;51.704;5.146;2022-08-11T15:39:08;6.15;;;2.85;;
55483;SDS011;41345;51.704;5.146;2022-08-11T15:44:11;5.68;;;2.00;;
55483;SDS011;41345;51.704;5.146;2022-08-11T15:49:34;6.40;;;1.98;;
55483;SDS011;41345;51.704;5.146;2022-08-11T15:54:39;4.68;;;1.90;;
55483;SDS011;41345;51.704;5.146;2022-08-11T15:59:43;3.75;;;1.88;;
55483;SDS011;41345;51.704;5.146;2022-08-11T16:05:02;4.88;;;1.83;;
55483;SDS011;41345;51.704;5.146;2022-08-11T16:10:05;7.72;;;1.98;;
55483;SDS011;41345;51.704;5.146;2022-08-11T16:15:08;7.32;;;2.08;;
55483;SDS011;41345;51.704;5.146;2022-08-11T16:20:28;6.20;;;2.10;;
55483;SDS011;41345;51.704;5.146;2022-08-11T16:25:32;7.25;;;2.25;;
55483;SDS011;41345;51.704;5.146;2022-08-11T16:30:34;4.28;;;1.67;;
55483;SDS011;41345;51.704;5.146;2022-08-11T16:35:35;4.72;;;1.90;;
55483;SDS011;41345;51.704;5.146;2022-08-11T16:40:54;5.40;;;1.83;;
55483;SDS011;41345;51.704;5.146;2022-08-11T16:45:55;6.88;;;2.15;;
55483;SDS011;41345;51.704;5.146;2022-08-11T16:51:14;4.57;;;1.98;;
55483;SDS011;41345;51.704;5.146;2022-08-11T16:56:15;5.10;;;1.97;;
55483;SDS011;41345;51.704;5.146;2022-08-11T17:01:19;3.67;;;1.52;;
55483;SDS011;41345;51.704;5.146;2022-08-11T17:06:20;6.40;;;2.20;;
55483;SDS011;41345;51.704;5.146;2022-08-11T17:11:45;5.03;;;1.80;;
55483;SDS011;41345;51.704;5.146;2022-08-11T17:17:11;4.38;;;2.03;;
55483;SDS011;41345;51.704;5.146;2022-08-11T17:22:12;7.35;;;1.80;;
55483;SDS011;41345;51.704;5.146;2022-08-11T17:27:31;5.32;;;1.95;;
55483;SDS011;41345;51.704;5.146;2022-08-11T17:32:36;5.20;;;1.95;;
55483;SDS011;41345;51.704;5.146;2022-08-11T17:42:56;7.57;;;1.80;;
55483;SDS011;41345;51.704;5.146;2022-08-11T17:48:15;3.55;;;1.83;;
55483;SDS011;41345;51.704;5.146;2022-08-11T17:53:26;4.18;;;1.90;;
55483;SDS011;41345;51.704;5.146;2022-08-11T17:58:45;7.25;;;1.98;;
55483;SDS011;41345;51.704;5.146;2022-08-11T18:04:06;4.95;;;2.15;;
55483;SDS011;41345;51.704;5.146;2022-08-11T18:09:09;5.50;;;1.80;;
55483;SDS011;41345;51.704;5.146;2022-08-11T18:14:29;4.65;;;2.00;;
55483;SDS011;41345;51.704;5.146;2022-08-11T18:19:49;6.60;;;2.13;;
55483;SDS011;41345;51.704;5.146;2022-08-11T18:25:09;3.20;;;1.85;;
55483;SDS011;41345;51.704;5.146;2022-08-11T18:30:29;5.53;;;1.63;;
55483;SDS011;41345;51.704;5.146;2022-08-11T18:35:50;5.10;;;2.00;;
55483;SDS011;41345;51.704;5.146;2022-08-11T18:41:10;8.32;;;2.00;;
55483;SDS011;41345;51.704;5.146;2022-08-11T18:46:33;4.75;;;2.10;;
55483;SDS011;41345;51.704;5.146;2022-08-11T18:51:53;6.72;;;2.10;;
55483;SDS011;41345;51.704;5.146;2022-08-11T18:57:13;8.32;;;2.08;;
55483;SDS011;41345;51.704;5.146;2022-08-11T19:02:33;3.55;;;1.55;;
55483;SDS011;41345;51.704;5.146;2022-08-11T19:07:53;4.72;;;1.85;;
55483;SDS011;41345;51.704;5.146;2022-08-11T19:13:14;4.80;;;2.30;;
55483;SDS011;41345;51.704;5.146;2022-08-11T19:18:33;6.43;;;1.80;;
55483;SDS011;41345;51.704;5.146;2022-08-11T19:23:53;5.72;;;1.95;;
55483;SDS011;41345;51.704;5.146;2022-08-11T19:29:14;8.07;;;2.25;;
55483;SDS011;41345;51.704;5.146;2022-08-11T19:34:33;4.35;;;1.73;;
55483;SDS011;41345;51.704;5.146;2022-08-11T19:39:54;26.33;;;3.97;;
55483;SDS011;41345;51.704;5.146;2022-08-11T19:45:13;4.10;;;1.77;;
55483;SDS011;41345;51.704;5.146;2022-08-11T19:50:32;5.32;;;1.90;;
55483;SDS011;41345;51.704;5.146;2022-08-11T19:55:52;6.47;;;2.83;;
55483;SDS011;41345;51.704;5.146;2022-08-11T20:01:11;48.00;;;6.72;;
55483;SDS011;41345;51.704;5.146;2022-08-11T20:06:30;8.07;;;2.78;;
55483;SDS011;41345;51.704;5.146;2022-08-11T20:11:51;5.95;;;2.70;;
55483;SDS011;41345;51.704;5.146;2022-08-11T20:17:10;11.45;;;3.45;;
55483;SDS011;41345;51.704;5.146;2022-08-11T20:22:29;11.85;;;3.58;;
55483;SDS011;41345;51.704;5.146;2022-08-11T20:27:49;8.20;;;3.42;;
55483;SDS011;41345;51.704;5.146;2022-08-11T20:33:08;9.13;;;3.22;;
55483;SDS011;41345;51.704;5.146;2022-08-11T20:38:29;7.43;;;3.50;;
55483;SDS011;41345;51.704;5.146;2022-08-11T20:43:48;8.20;;;3.80;;
55483;SDS011;41345;51.704;5.146;2022-08-11T20:49:08;4.93;;;2.55;;
55483;SDS011;41345;51.704;5.146;2022-08-11T20:54:27;6.55;;;3.13;;
55483;SDS011;41345;51.704;5.146;2022-08-11T20:59:47;6.32;;;3.53;;
55483;SDS011;41345;51.704;5.146;2022-08-11T21:05:06;6.18;;;3.97;;
55483;SDS011;41345;51.704;5.146;2022-08-11T21:10:27;9.77;;;3.80;;
55483;SDS011;41345;51.704;5.146;2022-08-11T21:15:46;6.43;;;3.17;;
55483;SDS011;41345;51.704;5.146;2022-08-11T21:21:06;6.22;;;3.20;;
55483;SDS011;41345;51.704;5.146;2022-08-11T21:26:25;9.98;;;3.58;;
55483;SDS011;41345;51.704;5.146;2022-08-11T21:31:45;6.35;;;3.03;;
55483;SDS011;41345;51.704;5.146;2022-08-11T21:37:05;6.00;;;3.13;;
55483;SDS011;41345;51.704;5.146;2022-08-11T21:42:24;5.43;;;2.92;;
55483;SDS011;41345;51.704;5.146;2022-08-11T21:47:43;5.35;;;2.92;;
55483;SDS011;41345;51.704;5.146;2022-08-11T21:53:03;5.78;;;3.10;;
55483;SDS011;41345;51.704;5.146;2022-08-11T21:58:23;5.13;;;3.35;;
55483;SDS011;41345;51.704;5.146;2022-08-11T22:03:42;5.70;;;3.78;;
55483;SDS011;41345;51.704;5.146;2022-08-11T22:09:01;5.15;;;2.72;;
55483;SDS011;41345;51.704;5.146;2022-08-11T22:14:20;7.38;;;3.33;;
55483;SDS011;41345;51.704;5.146;2022-08-11T22:19:40;8.40;;;3.55;;
55483;SDS011;41345;51.704;5.146;2022-08-11T22:25:00;8.02;;;2.92;;
55483;SDS011;41345;51.704;5.146;2022-08-11T22:30:20;8.52;;;2.85;;
55483;SDS011;41345;51.704;5.146;2022-08-11T22:35:40;6.15;;;3.15;;
55483;SDS011;41345;51.704;5.146;2022-08-11T22:41:00;4.85;;;3.15;;
55483;SDS011;41345;51.704;5.146;2022-08-11T22:46:20;7.05;;;3.97;;
55483;SDS011;41345;51.704;5.146;2022-08-11T22:51:39;8.32;;;3.97;;
55483;SDS011;41345;51.704;5.146;2022-08-11T22:56:59;11.38;;;3.75;;
55483;SDS011;41345;51.704;5.146;2022-08-11T23:02:17;7.50;;;3.97;;
55483;SDS011;41345;51.704;5.146;2022-08-11T23:07:37;6.10;;;3.30;;
55483;SDS011;41345;51.704;5.146;2022-08-11T23:12:56;9.85;;;4.72;;
55483;SDS011;41345;51.704;5.146;2022-08-11T23:18:15;18.20;;;5.53;;
55483;SDS011;41345;51.704;5.146;2022-08-11T23:23:34;8.23;;;4.50;;
55483;SDS011;41345;51.704;5.146;2022-08-11T23:28:53;8.52;;;4.30;;
55483;SDS011;41345;51.704;5.146;2022-08-11T23:34:14;5.85;;;3.25;;
55483;SDS011;41345;51.704;5.146;2022-08-11T23:39:36;8.07;;;3.47;;
55483;SDS011;41345;51.704;5.146;2022-08-11T23:44:55;4.38;;;2.72;;
55483;SDS011;41345;51.704;5.146;2022-08-11T23:50:14;5.25;;;2.80;;
55483;SDS011;41345;51.704;5.146;2022-08-11T23:55:34;5.20;;;2.70;;
